Time;durP1;ratioP1;P1;durP2;ratioP2;P2;SDS_P1;SDS_P2;PMS_P1;PMS_P2;Temp;Humidity;BMP_temperature;BMP_pressure;BME280_temperature;BME280_humidity;BME280_pressure;Samples;Min_cycle;Max_cycle;Signal;HPM_P1;HPM_P2
2021/10/31 00:00:20;;;;;;;;;;;;;;;16.03;59.27;101884.50;145001;919;2000;-86
2021/10/31 00:02:46;;;;;;;;;;;;;;;15.94;59.30;101886.03;145001;921;2000;-86
2021/10/31 00:05:15;;;;;;;;;;;;;;;15.89;59.59;101886.75;145001;924;2000;-85
2021/10/31 00:07:41;;;;;;;;;;;;;;;15.87;59.31;101885.81;145002;922;1017;-86
2021/10/31 00:10:08;;;;;;;;;;;;;;;15.85;59.20;101890.16;145002;919;1017;-85
2021/10/31 00:12:34;;;;;;;;;;;;;;;15.80;59.59;101892.62;145002;921;1016;-85
2021/10/31 00:15:00;;;;;;;;;;;;;;;15.76;59.64;101899.53;145002;924;1021;-86
2021/10/31 00:17:26;;;;;;;;;;;;;;;15.76;59.98;101891.69;145002;921;1019;-85
2021/10/31 00:19:53;;;;;;;;;;;;;;;15.80;59.60;101897.00;145002;919;1020;-85
2021/10/31 00:22:20;;;;;;;;;;;;;;;15.81;59.56;101889.16;145001;922;2000;-85
2021/10/31 00:24:46;;;;;;;;;;;;;;;15.83;59.56;101879.62;145002;923;1021;-85
2021/10/31 00:27:14;;;;;;;;;;;;;;;15.85;59.70;101885.78;145002;917;1017;-85
2021/10/31 00:29:40;;;;;;;;;;;;;;;15.87;59.45;101889.31;145002;924;1017;-86
2021/10/31 00:32:07;;;;;;;;;;;;;;;15.88;59.47;101887.63;145002;921;1021;-85
2021/10/31 00:34:33;;;;;;;;;;;;;;;15.91;59.62;101893.81;145002;923;1020;-84
2021/10/31 00:36:58;;;;;;;;;;;;;;;15.93;59.60;101901.72;145002;922;1020;-85
2021/10/31 00:39:24;;;;;;;;;;;;;;;15.93;59.40;101894.72;145002;919;1020;-85
2021/10/31 00:41:50;;;;;;;;;;;;;;;15.94;59.32;101893.00;145001;917;2000;-85
2021/10/31 00:44:17;;;;;;;;;;;;;;;15.94;59.45;101899.13;145002;920;1020;-86
2021/10/31 00:46:43;;;;;;;;;;;;;;;15.94;59.20;101903.50;145002;921;1017;-86
2021/10/31 00:49:09;;;;;;;;;;;;;;;15.93;59.28;101905.19;145002;919;1017;-86
2021/10/31 00:51:35;;;;;;;;;;;;;;;15.91;60.23;101892.94;145002;922;1020;-84
2021/10/31 00:54:01;;;;;;;;;;;;;;;15.87;59.81;101893.69;145002;919;1017;-85
2021/10/31 00:56:27;;;;;;;;;;;;;;;15.86;60.15;101884.03;145002;921;1017;-85
2021/10/31 00:58:53;;;;;;;;;;;;;;;15.86;60.49;101884.94;145002;924;1019;-85
2021/10/31 01:01:19;;;;;;;;;;;;;;;15.85;60.37;101887.53;145002;922;1020;-84
2021/10/31 01:03:46;;;;;;;;;;;;;;;15.79;60.60;101888.25;145002;924;1021;-85
2021/10/31 01:06:31;;;;;;;;;;;;;;;15.76;60.66;101896.91;145002;922;1017;-85
2021/10/31 01:09:09;;;;;;;;;;;;;;;15.76;60.79;101895.97;145002;919;1019;-81
2021/10/31 01:11:44;;;;;;;;;;;;;;;15.74;61.27;101893.31;145002;917;1018;-85
2021/10/31 01:14:22;;;;;;;;;;;;;;;15.74;61.37;101895.06;145002;920;1020;-85
2021/10/31 01:17:10;;;;;;;;;;;;;;;15.75;61.55;101904.69;145002;917;1023;-86
2021/10/31 01:19:54;;;;;;;;;;;;;;;15.74;62.29;101895.06;145002;924;1017;-88
2021/10/31 01:22:30;;;;;;;;;;;;;;;15.75;62.52;101894.22;145001;918;2002;-86
2021/10/31 01:25:23;;;;;;;;;;;;;;;15.74;62.08;101884.59;145002;921;1022;-87
2021/10/31 01:28:01;;;;;;;;;;;;;;;15.73;62.35;101881.09;145002;920;1020;-85
2021/10/31 01:30:44;;;;;;;;;;;;;;;15.68;63.33;101881.78;145002;922;1018;-85
2021/10/31 01:33:19;;;;;;;;;;;;;;;15.53;63.40;101884.87;145002;920;1019;-85
2021/10/31 01:35:52;;;;;;;;;;;;;;;15.50;63.56;101875.22;145002;922;1019;-85
2021/10/31 01:38:53;;;;;;;;;;;;;;;15.52;63.51;101880.50;145002;920;1019;-85
2021/10/31 01:41:23;;;;;;;;;;;;;;;15.51;63.92;101876.09;145002;921;1020;-84
2021/10/31 01:43:57;;;;;;;;;;;;;;;15.50;63.70;101872.59;145002;920;1017;-86
2021/10/31 01:46:31;;;;;;;;;;;;;;;15.50;64.24;101876.94;145002;921;1020;-85
2021/10/31 01:49:22;;;;;;;;;;;;;;;15.48;64.50;101874.28;145002;920;1018;-84
2021/10/31 01:52:02;;;;;;;;;;;;;;;15.50;64.48;101871.72;145002;922;1023;-84
2021/10/31 01:54:35;;;;;;;;;;;;;;;15.49;64.65;101870.81;145002;919;1019;-85
2021/10/31 01:57:04;;;;;;;;;;;;;;;15.48;64.87;101874.28;145002;922;1019;-84
2021/10/31 01:59:33;;;;;;;;;;;;;;;15.49;64.91;101868.19;145002;920;1022;-85
2021/10/31 02:02:00;;;;;;;;;;;;;;;15.50;65.09;101869.09;145002;921;1021;-85
2021/10/31 02:04:27;;;;;;;;;;;;;;;15.48;64.90;101869.06;145002;920;1019;-85
2021/10/31 02:06:53;;;;;;;;;;;;;;;15.45;65.39;101865.47;145002;922;1023;-85
2021/10/31 02:09:23;;;;;;;;;;;;;;;15.42;65.21;101867.13;145002;919;1023;-86
2021/10/31 02:11:51;;;;;;;;;;;;;;;15.44;65.73;101866.31;145002;922;1019;-89
2021/10/31 02:14:22;;;;;;;;;;;;;;;15.48;65.41;101869.06;145002;920;1018;-87
2021/10/31 02:16:50;;;;;;;;;;;;;;;15.55;65.59;101864.88;145002;921;1019;-88
2021/10/31 02:19:28;;;;;;;;;;;;;;;15.60;65.62;101850.19;145002;919;1018;-85
2021/10/31 02:21:58;;;;;;;;;;;;;;;15.67;65.63;101859.97;145002;922;1019;-84
2021/10/31 02:24:25;;;;;;;;;;;;;;;15.69;66.07;101855.66;145001;919;1998;-87
2021/10/31 02:26:51;;;;;;;;;;;;;;;15.72;65.44;101857.50;145002;924;1017;-86
2021/10/31 02:29:17;;;;;;;;;;;;;;;15.71;65.49;101851.34;145002;922;1019;-85
2021/10/31 02:31:43;;;;;;;;;;;;;;;15.70;65.76;101849.59;145002;923;1017;-86
2021/10/31 02:34:09;;;;;;;;;;;;;;;15.68;65.72;101839.91;145001;917;2000;-85
2021/10/31 02:36:36;;;;;;;;;;;;;;;15.66;65.59;101847.72;145002;924;1020;-84
2021/10/31 02:39:04;;;;;;;;;;;;;;;15.60;65.82;101847.56;145002;921;1018;-85
2021/10/31 02:41:30;;;;;;;;;;;;;;;15.50;66.82;101850.78;145003;924;1017;-85
2021/10/31 02:43:56;;;;;;;;;;;;;;;15.45;66.05;101852.38;145003;918;1021;-85
2021/10/31 02:46:23;;;;;;;;;;;;;;;15.41;66.04;101854.00;145003;923;1021;-85
2021/10/31 02:48:48;;;;;;;;;;;;;;;15.36;66.21;101853.00;145003;924;1019;-86
2021/10/31 02:51:17;;;;;;;;;;;;;;;15.34;66.07;101852.09;145003;920;1020;-86
2021/10/31 02:54:06;;;;;;;;;;;;;;;15.30;66.85;101844.97;145003;921;1017;-85
2021/10/31 02:56:40;;;;;;;;;;;;;;;15.31;66.31;101846.75;145003;919;1023;-85
2021/10/31 02:59:20;;;;;;;;;;;;;;;15.31;66.57;101852.88;145003;920;1019;-85
2021/10/31 03:01:47;;;;;;;;;;;;;;;15.32;66.61;101853.75;145003;921;1018;-84
2021/10/31 03:04:15;;;;;;;;;;;;;;;15.27;66.59;101843.19;145003;920;1017;-83
2021/10/31 03:06:41;;;;;;;;;;;;;;;15.22;67.06;101850.00;145003;922;1020;-84
2021/10/31 03:09:07;;;;;;;;;;;;;;;15.12;67.08;101843.59;145003;915;1020;-85
2021/10/31 03:11:33;;;;;;;;;;;;;;;15.09;67.04;101845.25;145002;917;1020;-83
2021/10/31 03:13:59;;;;;;;;;;;;;;;15.09;67.24;101840.91;145002;916;1017;-85
2021/10/31 03:16:25;;;;;;;;;;;;;;;15.11;67.03;101847.09;145002;917;1019;-84
2021/10/31 03:18:51;;;;;;;;;;;;;;;15.10;67.32;101844.44;145002;915;1018;-85
2021/10/31 03:21:17;;;;;;;;;;;;;;;15.07;67.17;101847.81;145002;918;1018;-85
2021/10/31 03:23:43;;;;;;;;;;;;;;;15.04;67.45;101838.16;145002;915;1022;-86
2021/10/31 03:26:09;;;;;;;;;;;;;;;15.01;67.30;101842.41;145002;918;1019;-84
2021/10/31 03:28:35;;;;;;;;;;;;;;;14.97;67.70;101836.22;145002;916;1019;-86
2021/10/31 03:31:01;;;;;;;;;;;;;;;15.02;67.64;101841.59;145002;917;1016;-85
2021/10/31 03:33:27;;;;;;;;;;;;;;;15.05;67.87;101845.16;145002;919;1020;-85
2021/10/31 03:35:53;;;;;;;;;;;;;;;15.05;67.65;101836.44;145002;918;1019;-86
2021/10/31 03:38:19;;;;;;;;;;;;;;;15.07;67.90;101836.50;145002;919;1021;-86
2021/10/31 03:40:46;;;;;;;;;;;;;;;15.11;67.86;101841.84;145002;922;1017;-85
2021/10/31 03:43:12;;;;;;;;;;;;;;;15.14;68.08;101847.16;145002;920;1018;-86
2021/10/31 03:45:40;;;;;;;;;;;;;;;15.16;68.25;101850.72;145002;921;1017;-83
2021/10/31 03:48:09;;;;;;;;;;;;;;;15.20;68.57;101847.31;145002;920;1016;-85
2021/10/31 03:50:35;;;;;;;;;;;;;;;15.17;68.34;101839.38;145002;922;1020;-85
2021/10/31 03:53:01;;;;;;;;;;;;;;;14.98;70.41;101839.72;145002;915;1017;-86
2021/10/31 03:55:30;;;;;;;;;;;;;;;14.93;69.08;101836.94;145001;918;2000;-85
2021/10/31 03:57:56;;;;;;;;;;;;;;;14.82;69.33;101846.19;145002;920;1021;-86
2021/10/31 04:00:25;;;;;;;;;;;;;;;14.87;69.08;101842.91;145002;921;1019;-86
2021/10/31 04:02:53;;;;;;;;;;;;;;;14.89;68.80;101840.34;145002;919;1020;-87
2021/10/31 04:05:19;;;;;;;;;;;;;;;14.93;68.58;101841.31;145002;922;1017;-87
2021/10/31 04:07:47;;;;;;;;;;;;;;;14.90;69.03;101835.97;145002;915;1019;-88
2021/10/31 04:10:13;;;;;;;;;;;;;;;14.83;69.09;101838.41;145002;921;1018;-85
2021/10/31 04:12:39;;;;;;;;;;;;;;;14.77;69.57;101830.37;145002;920;1019;-84
2021/10/31 04:15:08;;;;;;;;;;;;;;;14.82;69.09;101831.41;145002;917;1020;-86
2021/10/31 04:17:34;;;;;;;;;;;;;;;14.86;68.82;101835.88;145002;919;1021;-86
2021/10/31 04:20:00;;;;;;;;;;;;;;;14.91;68.77;101837.78;145002;918;1017;-87
2021/10/31 04:22:29;;;;;;;;;;;;;;;14.93;68.89;101847.41;145002;920;1021;-86
2021/10/31 04:24:55;;;;;;;;;;;;;;;14.94;68.69;101843.97;145002;921;1016;-86
2021/10/31 04:27:21;;;;;;;;;;;;;;;14.96;68.87;101846.63;145002;916;1020;-86
2021/10/31 04:29:49;;;;;;;;;;;;;;;14.96;68.81;101837.03;145002;917;1017;-82
2021/10/31 04:32:15;;;;;;;;;;;;;;;14.96;68.75;101834.44;145002;919;1019;-86
2021/10/31 04:34:44;;;;;;;;;;;;;;;14.98;68.61;101834.47;145002;918;1017;-86
2021/10/31 04:37:10;;;;;;;;;;;;;;;15.00;68.66;101838.00;145002;920;1017;-86
2021/10/31 04:39:36;;;;;;;;;;;;;;;15.02;68.70;101834.63;145002;921;1017;-86
2021/10/31 04:42:04;;;;;;;;;;;;;;;15.03;68.51;101838.09;145002;915;1017;-85
2021/10/31 04:44:31;;;;;;;;;;;;;;;15.03;68.91;101830.25;145002;922;1017;-86
2021/10/31 04:46:57;;;;;;;;;;;;;;;15.00;68.87;101836.31;145001;919;2000;-86
2021/10/31 04:49:23;;;;;;;;;;;;;;;15.03;68.87;101843.34;145002;917;1017;-87
2021/10/31 04:51:49;;;;;;;;;;;;;;;15.00;69.27;101843.25;145002;920;1020;-85
2021/10/31 04:54:17;;;;;;;;;;;;;;;14.92;68.97;101840.44;145002;917;1017;-87
2021/10/31 04:56:43;;;;;;;;;;;;;;;14.85;69.29;101847.19;145002;919;1018;-86
2021/10/31 04:59:09;;;;;;;;;;;;;;;14.78;70.74;101840.00;145002;918;1017;-85
2021/10/31 05:01:35;;;;;;;;;;;;;;;14.79;69.65;101836.53;145002;919;1022;-88
2021/10/31 05:04:01;;;;;;;;;;;;;;;14.86;69.59;101837.63;145002;922;1017;-86
2021/10/31 05:06:27;;;;;;;;;;;;;;;14.82;70.04;101831.41;145002;916;1020;-88
2021/10/31 05:08:56;;;;;;;;;;;;;;;14.86;69.62;101829.78;145002;921;1022;-86
2021/10/31 05:11:22;;;;;;;;;;;;;;;14.92;69.46;101836.91;145002;920;1017;-89
2021/10/31 05:13:48;;;;;;;;;;;;;;;14.94;69.50;101837.88;145002;922;1018;-87
2021/10/31 05:16:14;;;;;;;;;;;;;;;14.99;69.68;101841.50;145002;915;1017;-86
2021/10/31 05:18:40;;;;;;;;;;;;;;;14.95;69.79;101843.09;145002;922;1017;-87
2021/10/31 05:21:07;;;;;;;;;;;;;;;14.98;69.68;101839.72;145002;920;1020;-85
2021/10/31 05:23:33;;;;;;;;;;;;;;;15.00;69.58;101838.91;145001;921;2000;-87
2021/10/31 05:25:59;;;;;;;;;;;;;;;14.98;69.89;101850.16;145002;915;1017;-86
2021/10/31 05:28:26;;;;;;;;;;;;;;;14.97;69.92;101840.53;145002;918;1017;-86
2021/10/31 05:30:52;;;;;;;;;;;;;;;14.99;69.54;101852.81;145002;919;1021;-87
2021/10/31 05:33:19;;;;;;;;;;;;;;;14.97;69.75;101856.22;145002;921;1017;-87
2021/10/31 05:35:45;;;;;;;;;;;;;;;14.98;69.99;101858.00;145002;920;1018;-86
2021/10/31 05:38:13;;;;;;;;;;;;;;;14.99;69.92;101852.81;145002;917;1019;-88
2021/10/31 05:40:43;;;;;;;;;;;;;;;15.06;70.20;101851.28;145002;920;1016;-87
2021/10/31 05:43:10;;;;;;;;;;;;;;;15.12;70.38;101859.31;145002;922;1017;-87
2021/10/31 05:45:36;;;;;;;;;;;;;;;15.14;70.30;101862.84;145002;919;1018;-87
2021/10/31 05:48:02;;;;;;;;;;;;;;;15.16;69.98;101853.34;145002;917;1019;-88
2021/10/31 05:50:28;;;;;;;;;;;;;;;15.10;70.05;101855.75;145002;920;1021;-87
2021/10/31 05:52:54;;;;;;;;;;;;;;;15.05;70.46;101860.84;145002;921;1016;-86
2021/10/31 05:55:20;;;;;;;;;;;;;;;15.07;69.83;101850.44;145002;915;1019;-82
2021/10/31 05:57:47;;;;;;;;;;;;;;;15.07;70.52;101853.06;145002;918;1021;-88
2021/10/31 06:00:16;;;;;;;;;;;;;;;15.00;70.80;101859.84;145002;919;1018;-86
2021/10/31 06:02:42;;;;;;;;;;;;;;;15.09;70.71;101872.28;145002;922;1019;-87
2021/10/31 06:05:08;;;;;;;;;;;;;;;15.16;70.70;101875.97;145002;920;1018;-86
2021/10/31 06:07:34;;;;;;;;;;;;;;;15.19;70.49;101866.50;145002;921;1019;-86
2021/10/31 06:10:01;;;;;;;;;;;;;;;15.29;70.18;101866.75;145002;920;1016;-86
2021/10/31 06:12:29;;;;;;;;;;;;;;;15.37;70.17;101873.09;145002;922;1016;-85
2021/10/31 06:14:58;;;;;;;;;;;;;;;15.41;69.97;101861.88;145002;919;1017;-85
2021/10/31 06:17:25;;;;;;;;;;;;;;;15.47;69.96;101859.41;145002;922;1018;-87
2021/10/31 06:19:51;;;;;;;;;;;;;;;15.54;69.98;101869.22;145002;920;1020;-86
2021/10/31 06:22:18;;;;;;;;;;;;;;;15.61;69.80;101875.50;145002;921;1016;-86
2021/10/31 06:24:45;;;;;;;;;;;;;;;15.62;69.70;101879.00;145002;920;1017;-85
2021/10/31 06:27:12;;;;;;;;;;;;;;;15.63;69.77;101867.69;145002;922;1018;-87
2021/10/31 06:29:39;;;;;;;;;;;;;;;15.65;69.65;101860.78;145002;919;1019;-86
2021/10/31 06:32:08;;;;;;;;;;;;;;;15.66;70.17;101860.81;145002;922;1016;-87
2021/10/31 06:34:34;;;;;;;;;;;;;;;15.69;69.57;101873.97;145002;920;1021;-87
2021/10/31 06:37:01;;;;;;;;;;;;;;;15.75;69.86;101873.28;145002;923;1017;-85
2021/10/31 06:39:29;;;;;;;;;;;;;;;15.77;69.73;101879.47;145002;920;1017;-87
2021/10/31 06:41:55;;;;;;;;;;;;;;;15.81;69.54;101877.81;145002;922;1017;-86
2021/10/31 06:44:23;;;;;;;;;;;;;;;15.84;69.64;101875.28;145002;919;1016;-87
2021/10/31 06:46:52;;;;;;;;;;;;;;;15.87;69.67;101871.00;145001;922;2000;-85
2021/10/31 06:49:36;;;;;;;;;;;;;;;15.95;69.35;101879.97;145002;920;1017;-88
2021/10/31 06:52:07;;;;;;;;;;;;;;;16.02;69.60;101882.72;145002;921;1015;-83
2021/10/31 06:54:40;;;;;;;;;;;;;;;16.06;69.44;101884.56;145002;919;1018;-80
2021/10/31 06:57:10;;;;;;;;;;;;;;;16.11;69.44;101877.72;145002;922;1021;-83
2021/10/31 06:59:43;;;;;;;;;;;;;;;16.15;69.34;101879.59;145002;919;1016;-84
2021/10/31 07:02:12;;;;;;;;;;;;;;;16.14;69.75;101889.16;145002;922;1016;-83
2021/10/31 07:04:40;;;;;;;;;;;;;;;16.16;69.44;101894.44;145002;920;1016;-86
2021/10/31 07:07:11;;;;;;;;;;;;;;;16.15;68.98;101887.44;145002;921;1019;-84
2021/10/31 07:09:42;;;;;;;;;;;;;;;16.10;69.92;101883.81;145002;919;1016;-85
2021/10/31 07:12:24;;;;;;;;;;;;;;;16.15;69.08;101879.59;145002;921;1016;-83
2021/10/31 07:15:08;;;;;;;;;;;;;;;16.20;69.66;101891.06;145002;919;1016;-89
2021/10/31 07:17:35;;;;;;;;;;;;;;;16.11;69.30;101886.47;145002;921;1015;-82
2021/10/31 07:20:04;;;;;;;;;;;;;;;16.16;69.58;101897.06;145002;920;1017;-87
2021/10/31 07:22:34;;;;;;;;;;;;;;;16.22;69.18;101897.22;145002;921;1016;-86
2021/10/31 07:25:00;;;;;;;;;;;;;;;16.25;69.00;101891.19;145002;920;1021;-87
2021/10/31 07:27:27;;;;;;;;;;;;;;;16.24;69.03;101894.63;145002;922;1017;-86
2021/10/31 07:29:56;;;;;;;;;;;;;;;16.25;69.41;101899.91;145002;919;1020;-85
2021/10/31 07:32:25;;;;;;;;;;;;;;;16.26;68.94;101887.72;145002;922;1016;-83
2021/10/31 07:34:55;;;;;;;;;;;;;;;16.31;69.24;101892.22;145002;920;1016;-84
2021/10/31 07:37:27;;;;;;;;;;;;;;;16.35;68.97;101894.91;145002;921;1018;-86
2021/10/31 07:39:58;;;;;;;;;;;;;;;16.39;68.88;101897.63;145002;920;1019;-84
2021/10/31 07:42:40;;;;;;;;;;;;;;;;;;;;;
2021/10/31 07:45:07;;;;;;;;;;;;;;;16.44;68.83;101895.13;145002;915;1022;-87
2021/10/31 07:47:33;;;;;;;;;;;;;;;16.45;68.72;101891.69;145002;920;1018;-87
2021/10/31 07:49:59;;;;;;;;;;;;;;;16.43;67.91;101888.09;145002;918;1019;-87
2021/10/31 07:52:25;;;;;;;;;;;;;;;16.37;68.43;101886.25;145002;915;1020;-86
2021/10/31 07:54:51;;;;;;;;;;;;;;;16.31;68.29;101884.34;145002;918;1018;-86
2021/10/31 07:57:22;;;;;;;;;;;;;;;16.26;69.00;101882.47;145002;916;1023;-86
2021/10/31 07:59:51;;;;;;;;;;;;;;;16.18;68.90;101884.91;145002;917;1020;-86
2021/10/31 08:02:17;;;;;;;;;;;;;;;16.12;68.84;101888.22;145002;920;1022;-86
2021/10/31 08:04:44;;;;;;;;;;;;;;;16.08;68.92;101886.41;145002;918;1019;-86
2021/10/31 08:07:13;;;;;;;;;;;;;;;16.04;69.49;101887.16;145002;919;1019;-86
2021/10/31 08:09:39;;;;;;;;;;;;;;;16.04;69.67;101887.16;145002;918;1020;-91
2021/10/31 08:12:11;;;;;;;;;;;;;;;16.10;69.42;101887.31;145002;920;1019;-90
2021/10/31 08:14:37;;;;;;;;;;;;;;;16.17;69.74;101877.87;145002;917;1019;-90
2021/10/31 08:17:03;;;;;;;;;;;;;;;16.28;69.89;101870.28;145002;919;1018;-91
2021/10/31 08:19:29;;;;;;;;;;;;;;;16.39;69.63;101875.81;145002;920;1018;-92
2021/10/31 08:22:04;;;;;;;;;;;;;;;16.50;68.91;101884.81;145002;919;1019;-92
2021/10/31 08:24:32;;;;;;;;;;;;;;;16.60;69.44;101875.41;145002;918;1022;-91
2021/10/31 08:27:00;;;;;;;;;;;;;;;16.66;68.84;101888.69;145002;920;1018;-90
2021/10/31 08:29:26;;;;;;;;;;;;;;;16.74;69.13;101886.22;145002;917;1018;-84
2021/10/31 08:32:11;;;;;;;;;;;;;;;16.78;69.26;101878.47;145002;920;1017;-86
2021/10/31 08:35:00;;;;;;;;;;;;;;;16.87;68.36;101883.94;145002;912;1018;-80
2021/10/31 08:43:36;;;;;;;;;;;;;;;17.10;68.51;101874.81;145002;925;1017;-89
2021/10/31 08:46:02;;;;;;;;;;;;;;;17.16;68.35;101880.19;145002;921;1017;-79
2021/10/31 08:48:34;;;;;;;;;;;;;;;17.20;68.36;101874.16;145002;924;1017;-90
2021/10/31 08:51:25;;;;;;;;;;;;;;;17.21;68.27;101878.53;145002;921;1018;-90
2021/10/31 09:04:00;;;;;;;;;;;;;;;17.19;68.25;101870.63;145002;935;1020;-89
2021/10/31 09:06:27;;;;;;;;;;;;;;;17.19;68.41;101877.63;145002;919;1016;-90
2021/10/31 09:11:24;;;;;;;;;;;;;;;17.15;68.23;101875.81;145002;931;1018;-87
2021/10/31 09:13:52;;;;;;;;;;;;;;;17.15;68.26;101865.31;145002;919;1020;-89
2021/10/31 09:16:19;;;;;;;;;;;;;;;17.14;68.75;101866.16;145002;917;1019;-89
2021/10/31 09:18:45;;;;;;;;;;;;;;;17.11;68.53;101856.47;145002;920;1018;-89
2021/10/31 09:21:10;;;;;;;;;;;;;;;17.06;68.46;101852.88;145002;913;1020;-88
2021/10/31 09:23:37;;;;;;;;;;;;;;;17.00;68.08;101853.59;145002;915;1019;-83
2021/10/31 09:26:04;;;;;;;;;;;;;;;16.89;68.73;101851.63;145002;918;1018;-86
2021/10/31 09:28:30;;;;;;;;;;;;;;;16.83;68.81;101849.69;145002;919;1016;-88
2021/10/31 09:30:57;;;;;;;;;;;;;;;16.86;69.27;101844.56;145002;918;1016;-91
2021/10/31 09:33:23;;;;;;;;;;;;;;;16.90;69.08;101832.44;145002;920;1019;-89
2021/10/31 09:35:52;;;;;;;;;;;;;;;16.94;69.31;101835.16;145002;917;1017;-88
2021/10/31 09:38:19;;;;;;;;;;;;;;;17.00;69.01;101830.00;145002;920;1016;-87
2021/10/31 09:40:45;;;;;;;;;;;;;;;17.07;68.53;101838.00;145002;918;1017;-89
2021/10/31 09:43:11;;;;;;;;;;;;;;;17.09;69.01;101829.31;145002;919;1018;-91
2021/10/31 09:45:37;;;;;;;;;;;;;;;17.14;69.17;101824.19;145002;918;1020;-88
2021/10/31 09:48:09;;;;;;;;;;;;;;;17.23;69.14;101820.00;145002;920;1020;-88
2021/10/31 09:50:37;;;;;;;;;;;;;;;17.34;69.08;101811.44;145002;917;1016;-90
2021/10/31 09:53:03;;;;;;;;;;;;;;;17.45;69.02;101811.62;145002;920;1020;-92
2021/10/31 09:55:29;;;;;;;;;;;;;;;17.58;68.69;101811.03;145002;918;1018;-92
2021/10/31 09:57:57;;;;;;;;;;;;;;;17.69;68.57;101803.31;145002;919;1018;-88
2021/10/31 10:00:34;;;;;;;;;;;;;;;17.81;68.71;101807.94;145002;917;1016;-90
2021/10/31 10:05:35;;;;;;;;;;;;;;;17.94;68.62;101797.69;145002;913;1022;-87
2021/10/31 10:08:11;;;;;;;;;;;;;;;18.02;68.27;101791.66;145002;919;1019;-90
2021/10/31 10:10:55;;;;;;;;;;;;;;;;;;;;;
2021/10/31 10:13:29;;;;;;;;;;;;;;;18.15;67.76;101792.75;145002;919;1020;-85
2021/10/31 10:16:13;;;;;;;;;;;;;;;18.10;67.33;101785.69;145002;920;1019;-90
2021/10/31 10:18:39;;;;;;;;;;;;;;;18.08;67.32;101784.75;145002;922;1019;-92
2021/10/31 10:21:22;;;;;;;;;;;;;;;18.08;67.41;101778.63;145002;920;1021;-89
2021/10/31 10:23:57;;;;;;;;;;;;;;;18.06;67.43;101781.22;145002;920;1018;-90
2021/10/31 10:26:28;;;;;;;;;;;;;;;18.10;67.23;101767.28;145002;918;1021;-89
2021/10/31 10:29:12;;;;;;;;;;;;;;;18.19;67.10;101770.91;145002;919;1018;-88
2021/10/31 10:31:42;;;;;;;;;;;;;;;18.24;67.52;101770.09;145002;918;1019;-88
2021/10/31 10:34:10;;;;;;;;;;;;;;;18.28;67.03;101761.41;145002;920;1021;-90
2021/10/31 10:36:40;;;;;;;;;;;;;;;18.35;67.26;101765.00;145002;917;1018;-88
2021/10/31 10:39:11;;;;;;;;;;;;;;;18.37;66.93;101754.53;145002;920;1021;-85
2021/10/31 10:41:55;;;;;;;;;;;;;;;18.42;67.30;101751.09;145002;918;1019;-88
2021/10/31 10:44:22;;;;;;;;;;;;;;;18.43;67.41;101746.72;145002;919;1018;-87
2021/10/31 10:46:49;;;;;;;;;;;;;;;18.40;67.06;101744.94;145002;918;1021;-88
2021/10/31 10:49:17;;;;;;;;;;;;;;;18.40;67.56;101742.28;145002;920;1023;-85
2021/10/31 10:52:01;;;;;;;;;;;;;;;18.42;67.03;101735.34;145002;917;1019;-89
2021/10/31 10:54:27;;;;;;;;;;;;;;;18.38;67.51;101740.53;145002;920;1019;-88
2021/10/31 10:57:02;;;;;;;;;;;;;;;18.36;67.53;101737.88;145002;917;1019;-91
2021/10/31 10:59:29;;;;;;;;;;;;;;;18.38;67.12;101740.53;145002;919;1019;-87
2021/10/31 11:02:16;;;;;;;;;;;;;;;18.39;67.22;101739.66;145002;918;1019;-90
2021/10/31 11:04:43;;;;;;;;;;;;;;;18.42;67.54;101729.16;145002;919;1019;-86
2021/10/31 11:07:10;;;;;;;;;;;;;;;18.43;67.25;101734.44;145002;918;1021;-85
2021/10/31 11:09:43;;;;;;;;;;;;;;;18.42;66.89;101730.06;145002;920;1023;-87
2021/10/31 11:12:30;;;;;;;;;;;;;;;18.43;67.07;101730.94;145002;917;1019;-87
2021/10/31 11:14:57;;;;;;;;;;;;;;;18.43;67.00;101718.69;145001;920;2002;-88
2021/10/31 11:17:24;;;;;;;;;;;;;;;18.43;66.78;101721.31;145002;901;1018;-89
2021/10/31 11:19:51;;;;;;;;;;;;;;;18.43;66.72;101721.31;145002;921;1020;-88
2021/10/31 11:22:18;;;;;;;;;;;;;;;18.28;67.00;101722.00;145002;920;1016;-90
2021/10/31 11:24:49;;;;;;;;;;;;;;;18.13;66.91;101717.41;145002;922;1020;-83
2021/10/31 11:27:16;;;;;;;;;;;;;;;18.09;66.42;101715.59;145002;919;1017;-83
2021/10/31 11:29:44;;;;;;;;;;;;;;;18.05;66.34;101716.41;145002;922;1020;-84
2021/10/31 11:32:10;;;;;;;;;;;;;;;17.94;66.14;101710.09;145002;920;1020;-84
2021/10/31 11:34:36;;;;;;;;;;;;;;;17.77;66.39;101710.69;145002;921;1018;-83
2021/10/31 11:37:03;;;;;;;;;;;;;;;17.63;66.24;101708.72;145002;915;1020;-83
2021/10/31 11:39:29;;;;;;;;;;;;;;;17.38;66.89;101701.28;145002;922;1023;-84
2021/10/31 11:41:58;;;;;;;;;;;;;;;17.30;66.82;101705.53;145002;919;1023;-83
2021/10/31 11:44:26;;;;;;;;;;;;;;;17.22;67.16;101705.38;145002;922;1021;-83
2021/10/31 11:46:52;;;;;;;;;;;;;;;17.16;66.94;101696.53;145002;920;1019;-82
2021/10/31 11:49:18;;;;;;;;;;;;;;;17.12;67.02;101695.59;145002;917;1017;-83
2021/10/31 11:51:46;;;;;;;;;;;;;;;17.07;67.80;101696.34;145002;915;1017;-83
2021/10/31 11:54:14;;;;;;;;;;;;;;;17.04;67.56;101695.44;145002;922;1018;-82
2021/10/31 11:56:50;;;;;;;;;;;;;;;17.05;67.46;101688.44;145002;919;1018;-83
2021/10/31 11:59:18;;;;;;;;;;;;;;;16.99;67.91;101684.00;145002;921;1020;-81
2021/10/31 12:01:48;;;;;;;;;;;;;;;16.94;67.73;101680.41;145002;920;1019;-81
2021/10/31 12:04:54;;;;;;;;;;;;;;;16.93;68.16;101683.00;145002;921;1020;-83
2021/10/31 12:07:34;;;;;;;;;;;;;;;16.92;68.17;101676.84;145002;919;1021;-84
2021/10/31 12:10:00;;;;;;;;;;;;;;;16.77;68.70;101672.16;145002;922;1020;-84
2021/10/31 12:12:26;;;;;;;;;;;;;;;16.69;68.54;101671.16;145002;919;1021;-82
2021/10/31 12:14:53;;;;;;;;;;;;;;;16.66;68.65;101671.97;145002;917;1019;-83
2021/10/31 12:17:20;;;;;;;;;;;;;;;16.69;68.31;101663.28;145002;920;1020;-83
2021/10/31 12:19:51;;;;;;;;;;;;;;;16.69;68.65;101665.91;145002;921;1020;-83
2021/10/31 12:22:39;;;;;;;;;;;;;;;16.67;68.89;101664.97;145002;920;1019;-85
2021/10/31 12:25:10;;;;;;;;;;;;;;;16.73;67.80;101664.22;145002;922;1020;-85
2021/10/31 12:28:02;;;;;;;;;;;;;;;16.75;68.48;101667.75;145002;919;1017;-86
2021/10/31 12:30:33;;;;;;;;;;;;;;;16.74;68.37;101663.38;145002;922;1018;-85
2021/10/31 12:33:06;;;;;;;;;;;;;;;16.73;68.35;101661.59;145002;919;1022;-86
2021/10/31 12:35:37;;;;;;;;;;;;;;;16.74;68.18;101663.38;145002;922;1021;-85
2021/10/31 12:38:40;;;;;;;;;;;;;;;16.78;67.93;101663.47;145002;920;1019;-85
2021/10/31 12:41:26;;;;;;;;;;;;;;;16.84;68.13;101662.69;145002;922;1020;-83
2021/10/31 12:43:56;;;;;;;;;;;;;;;16.87;68.05;101666.28;145002;919;1019;-87
2021/10/31 12:46:26;;;;;;;;;;;;;;;16.94;67.41;101667.28;145002;922;1018;-85
2021/10/31 12:49:03;;;;;;;;;;;;;;;17.00;67.63;101659.50;145001;919;1998;-81
2021/10/31 12:51:38;;;;;;;;;;;;;;;16.91;68.36;101659.38;145002;924;1017;-87
2021/10/31 12:54:04;;;;;;;;;;;;;;;16.91;68.49;101661.09;145002;922;1020;-88
2021/10/31 12:56:31;;;;;;;;;;;;;;;16.93;67.92;101665.50;145002;919;1017;-85
2021/10/31 12:59:07;;;;;;;;;;;;;;;17.00;67.74;101663.87;145002;922;1016;-89
2021/10/31 13:01:36;;;;;;;;;;;;;;;16.92;68.28;101665.47;145002;924;1016;-87
2021/10/31 13:04:05;;;;;;;;;;;;;;;16.83;68.46;101661.81;145002;921;1016;-89
2021/10/31 13:06:50;;;;;;;;;;;;;;;16.97;68.99;101667.34;145002;924;1014;-88
2021/10/31 13:09:16;;;;;;;;;;;;;;;16.92;68.54;101665.47;145002;922;1019;-89
2021/10/31 13:11:43;;;;;;;;;;;;;;;17.11;67.78;101661.47;145002;919;1018;-84
2021/10/31 13:14:47;;;;;;;;;;;;;;;17.11;67.71;101653.59;145002;918;1018;-86
2021/10/31 13:17:13;;;;;;;;;;;;;;;16.96;68.23;101651.59;145002;923;1017;-87
2021/10/31 13:19:39;;;;;;;;;;;;;;;16.89;68.02;101647.06;145002;921;1017;-86
2021/10/31 13:22:12;;;;;;;;;;;;;;;16.89;68.16;101649.69;145002;924;1020;-89